createdAt,value
2022-09-07T00:00:10.646Z,99.41
2022-09-07T00:01:10.639Z,99.52
2022-09-07T00:02:10.629Z,99.41
2022-09-07T00:03:10.711Z,99.52
2022-09-07T00:04:10.654Z,99.41
2022-09-07T00:05:10.590Z,99.52
2022-09-07T00:06:10.583Z,99.52
2022-09-07T00:07:10.570Z,99.52
2022-09-07T00:08:10.563Z,99.62
2022-09-07T00:09:10.549Z,99.62
2022-09-07T00:10:10.541Z,99.62
2022-09-07T00:11:10.528Z,99.62
2022-09-07T00:12:10.519Z,99.62
2022-09-07T00:13:10.509Z,99.62
2022-09-07T00:14:10.498Z,99.62
2022-09-07T00:15:10.485Z,99.62
2022-09-07T00:16:10.530Z,99.52
2022-09-07T00:17:10.566Z,99.52
2022-09-07T00:18:10.453Z,99.52
2022-09-07T00:19:10.441Z,99.52
2022-09-07T00:20:10.433Z,99.52
2022-09-07T00:21:10.420Z,99.46
2022-09-07T00:22:10.411Z,99.41
2022-09-07T00:23:10.401Z,99.41
2022-09-07T00:24:10.390Z,99.41
2022-09-07T00:25:10.379Z,99.46
2022-09-07T00:26:10.380Z,99.41
2022-09-07T00:27:10.357Z,99.36
2022-09-07T00:28:10.349Z,99.41
2022-09-07T00:29:10.336Z,99.46
2022-09-07T00:30:10.325Z,99.26
2022-09-07T00:31:10.366Z,99.36
2022-09-07T00:32:10.303Z,99.36
2022-09-07T00:33:10.295Z,99.26
2022-09-07T00:34:10.285Z,99.21
2022-09-07T00:35:10.269Z,99.26
2022-09-07T00:36:10.261Z,99.26
2022-09-07T00:37:10.250Z,99.26
2022-09-07T00:38:10.239Z,99.16
2022-09-07T00:39:10.228Z,99.16
2022-09-07T00:40:10.341Z,99.26
2022-09-07T00:41:10.206Z,99.16
2022-09-07T00:42:10.197Z,99.16
2022-09-07T00:43:10.185Z,99.16
2022-09-07T00:44:10.176Z,99.05
2022-09-07T00:45:10.177Z,99.05
2022-09-07T00:46:10.216Z,98.96
2022-09-07T00:47:10.143Z,98.96
2022-09-07T00:48:10.132Z,98.96
2022-09-07T00:49:10.121Z,98.96
2022-09-07T00:50:10.112Z,98.85
2022-09-07T00:51:10.099Z,98.85
2022-09-07T00:52:10.090Z,98.85
2022-09-07T00:53:10.082Z,98.85
2022-09-07T00:54:10.070Z,98.85
2022-09-07T00:55:10.056Z,98.65
2022-09-07T00:56:10.047Z,98.75
2022-09-07T00:57:10.034Z,98.65
2022-09-07T00:58:10.026Z,98.75
2022-09-07T00:59:10.020Z,98.65
2022-09-07T01:00:10.006Z,98.75
2022-09-07T01:01:09.993Z,98.75
2022-09-07T01:02:10.141Z,98.55
2022-09-07T01:03:09.971Z,98.65
2022-09-07T01:04:09.962Z,98.65
2022-09-07T01:05:09.951Z,98.55
2022-09-07T01:06:09.942Z,98.65
2022-09-07T01:07:09.928Z,98.65
2022-09-07T01:08:09.920Z,98.55
2022-09-07T01:09:09.910Z,98.45
2022-09-07T01:10:09.901Z,98.45
2022-09-07T01:11:09.889Z,98.35
2022-09-07T01:12:09.880Z,98.35
2022-09-07T01:13:09.865Z,98.35
2022-09-07T01:14:09.855Z,98.45
2022-09-07T01:15:09.844Z,98.35
2022-09-07T01:16:09.937Z,98.35
2022-09-07T01:17:09.824Z,98.25
2022-09-07T01:18:09.813Z,98.25
2022-09-07T01:19:09.803Z,98.14
2022-09-07T01:20:09.792Z,98.14
2022-09-07T01:21:09.781Z,98.14
2022-09-07T01:22:09.773Z,98.14
2022-09-07T01:23:09.757Z,98.05
2022-09-07T01:24:09.749Z,98.05
2022-09-07T01:25:09.739Z,97.94
2022-09-07T01:26:09.727Z,98.05
2022-09-07T01:27:09.715Z,97.94
2022-09-07T01:28:09.708Z,98.05
2022-09-07T01:29:09.698Z,97.94
2022-09-07T01:30:09.687Z,97.85
2022-09-07T01:31:09.749Z,97.85
2022-09-07T01:32:09.666Z,97.85
2022-09-07T01:33:09.654Z,97.74
2022-09-07T01:34:09.643Z,97.74
2022-09-07T01:35:09.631Z,97.69
2022-09-07T01:36:09.624Z,97.74
2022-09-07T01:37:09.609Z,97.64
2022-09-07T01:38:09.599Z,97.74
2022-09-07T01:39:09.588Z,97.74
2022-09-07T01:40:09.675Z,97.74
2022-09-07T01:41:09.567Z,97.69
2022-09-07T01:42:09.559Z,97.54
2022-09-07T01:43:09.547Z,97.54
2022-09-07T01:44:09.538Z,97.54
2022-09-07T01:45:09.526Z,97.54
2022-09-07T01:46:09.532Z,97.44
2022-09-07T01:47:09.503Z,97.54
2022-09-07T01:48:09.494Z,97.54
2022-09-07T01:49:09.482Z,97.44
2022-09-07T01:50:09.472Z,97.44
2022-09-07T01:51:09.460Z,97.44
2022-09-07T01:52:09.457Z,97.54
2022-09-07T01:53:09.442Z,97.44
2022-09-07T01:54:09.431Z,97.44
2022-09-07T01:55:09.419Z,97.34
2022-09-07T01:56:09.409Z,97.24
2022-09-07T01:57:09.397Z,97.24
2022-09-07T01:58:09.389Z,97.24
2022-09-07T01:59:09.480Z,97.24
2022-09-07T02:00:09.365Z,97.18
2022-09-07T02:01:09.354Z,97.08
2022-09-07T02:02:09.438Z,96.93
2022-09-07T02:03:09.381Z,96.78
2022-09-07T02:04:09.324Z,96.67
2022-09-07T02:05:09.311Z,96.57
2022-09-07T02:06:09.303Z,96.67
2022-09-07T02:07:09.291Z,96.57
2022-09-07T02:08:09.280Z,96.63
2022-09-07T02:09:09.270Z,96.57
2022-09-07T02:10:09.266Z,96.63
2022-09-07T02:11:09.249Z,96.63
2022-09-07T02:12:09.239Z,96.63
2022-09-07T02:13:09.225Z,96.47
2022-09-07T02:14:09.217Z,96.53
2022-09-07T02:15:09.207Z,96.42
2022-09-07T02:16:09.256Z,96.33
2022-09-07T02:17:09.184Z,96.33
2022-09-07T02:18:09.176Z,96.53
2022-09-07T02:19:09.166Z,96.42
2022-09-07T02:20:09.154Z,96.27
2022-09-07T02:21:09.145Z,96.27
2022-09-07T02:22:09.133Z,96.33
2022-09-07T02:23:09.119Z,96.12
2022-09-07T02:24:09.113Z,96.12
2022-09-07T02:25:09.102Z,96.17
2022-09-07T02:26:09.091Z,96.12
2022-09-07T02:27:09.076Z,96.07
2022-09-07T02:28:09.066Z,95.92
2022-09-07T02:29:09.056Z,95.97
2022-09-07T02:30:09.048Z,95.92
2022-09-07T02:31:09.068Z,95.92
2022-09-07T02:32:09.025Z,95.92
2022-09-07T02:33:09.014Z,95.92
2022-09-07T02:34:09.004Z,95.82
2022-09-07T02:35:09.006Z,95.97
2022-09-07T02:36:08.983Z,96.02
2022-09-07T02:37:08.975Z,96.02
2022-09-07T02:38:08.962Z,96.02
2022-09-07T02:39:08.950Z,95.92
2022-09-07T02:40:08.991Z,95.92
2022-09-07T02:41:08.929Z,95.92
2022-09-07T02:42:08.918Z,95.82
2022-09-07T02:43:08.924Z,95.92
2022-09-07T02:44:08.898Z,95.82
2022-09-07T02:45:08.889Z,95.82
2022-09-07T02:46:08.990Z,95.92
2022-09-07T02:47:08.958Z,95.92
2022-09-07T02:48:08.951Z,95.92
2022-09-07T02:49:08.984Z,95.92
2022-09-07T02:50:08.994Z,95.92
2022-09-07T02:51:08.979Z,95.82
2022-09-07T02:52:08.928Z,95.92
2022-09-07T02:53:08.798Z,96.02
2022-09-07T02:54:08.791Z,95.92
2022-09-07T02:55:08.780Z,95.92
2022-09-07T02:56:08.765Z,96.02
2022-09-07T02:57:08.757Z,96.02
2022-09-07T02:58:08.746Z,96.02
2022-09-07T02:59:08.834Z,96.02
2022-09-07T03:00:08.723Z,96.02
2022-09-07T03:01:08.764Z,96.02
2022-09-07T03:02:08.791Z,96.12
2022-09-07T03:03:08.694Z,95.98
2022-09-07T03:04:08.680Z,95.78
2022-09-07T03:05:08.676Z,95.57
2022-09-07T03:06:08.658Z,95.62
2022-09-07T03:07:08.658Z,95.57
2022-09-07T03:08:08.636Z,95.47
2022-09-07T03:09:08.628Z,95.67
2022-09-07T03:10:08.617Z,95.78
2022-09-07T03:11:08.608Z,95.78
2022-09-07T03:12:08.594Z,95.67
2022-09-07T03:13:08.586Z,95.47
2022-09-07T03:14:08.571Z,95.47
2022-09-07T03:15:08.562Z,95.37
2022-09-07T03:16:08.588Z,95.17
2022-09-07T03:17:08.538Z,94.76
2022-09-07T03:18:08.524Z,94.46
2022-09-07T03:19:08.517Z,94.15
2022-09-07T03:20:08.501Z,92.84
2022-09-07T03:21:08.492Z,92.44
2022-09-07T03:22:08.483Z,91.93
2022-09-07T03:23:08.482Z,91.22
2022-09-07T03:24:08.456Z,90.52
2022-09-07T03:25:08.448Z,89.54
2022-09-07T03:26:08.437Z,89.10
2022-09-07T03:27:08.424Z,88.74
2022-09-07T03:28:08.417Z,88.09
2022-09-07T03:29:08.400Z,87.62
2022-09-07T03:30:08.388Z,87.02
2022-09-07T03:31:08.465Z,85.50
2022-09-07T03:32:08.369Z,83.78
2022-09-07T03:33:08.356Z,82.56
2022-09-07T03:34:08.340Z,80.54
2022-09-07T03:35:08.336Z,78.42
2022-09-07T03:36:08.319Z,75.72
2022-09-07T03:37:08.309Z,74.00
2022-09-07T03:38:08.296Z,72.48
2022-09-07T03:39:08.286Z,71.88
2022-09-07T03:40:08.385Z,70.05
2022-09-07T03:41:08.263Z,69.04
2022-09-07T03:42:08.260Z,67.93
2022-09-07T03:43:08.243Z,67.14
2022-09-07T03:44:08.231Z,66.33
2022-09-07T03:45:08.223Z,65.32
2022-09-07T03:46:08.291Z,65.42
2022-09-07T03:47:08.201Z,65.42
2022-09-07T03:48:08.191Z,64.82
2022-09-07T03:49:08.179Z,64.41
2022-09-07T03:50:08.168Z,63.81
2022-09-07T03:51:08.159Z,63.09
2022-09-07T03:52:08.147Z,62.49
2022-09-07T03:53:08.141Z,62.18
2022-09-07T03:54:08.124Z,61.68
2022-09-07T03:55:08.115Z,61.37
2022-09-07T03:56:08.105Z,61.17
2022-09-07T03:57:08.097Z,60.66
2022-09-07T03:58:08.085Z,60.69
2022-09-07T03:59:08.072Z,60.59
2022-09-07T04:00:08.632Z,59.99
2022-09-07T04:01:08.133Z,59.68
2022-09-07T04:02:08.058Z,60.08
2022-09-07T04:03:08.032Z,60.19
2022-09-07T04:04:08.020Z,60.89
2022-09-07T04:05:08.009Z,60.49
2022-09-07T04:06:08.017Z,59.78
2022-09-07T04:07:07.989Z,59.48
2022-09-07T04:08:07.977Z,58.97
2022-09-07T04:09:07.967Z,59.48
2022-09-07T04:10:07.955Z,59.17
2022-09-07T04:11:07.946Z,59.27
2022-09-07T04:12:07.936Z,58.87
2022-09-07T04:13:07.926Z,58.67
2022-09-07T04:14:07.910Z,58.26
2022-09-07T04:15:07.901Z,57.65
2022-09-07T04:16:07.893Z,57.75
2022-09-07T04:17:07.951Z,58.47
2022-09-07T04:18:07.870Z,59.78
2022-09-07T04:19:07.861Z,58.87
2022-09-07T04:20:07.851Z,58.26
2022-09-07T04:21:07.840Z,58.26
2022-09-07T04:22:07.826Z,57.65
2022-09-07T04:23:07.817Z,57.35
2022-09-07T04:24:07.803Z,57.04
2022-09-07T04:25:07.797Z,57.04
2022-09-07T04:26:07.783Z,56.54
2022-09-07T04:27:07.775Z,56.01
2022-09-07T04:28:07.762Z,55.80
2022-09-07T04:29:07.754Z,55.70
2022-09-07T04:30:07.742Z,55.63
2022-09-07T04:31:07.813Z,55.63
2022-09-07T04:32:08.398Z,56.03
2022-09-07T04:33:07.713Z,55.52
2022-09-07T04:34:07.705Z,55.52
2022-09-07T04:35:07.694Z,55.22
2022-09-07T04:36:07.678Z,55.22
2022-09-07T04:37:07.669Z,55.12
2022-09-07T04:38:07.656Z,55.12
2022-09-07T04:39:07.649Z,55.22
2022-09-07T04:40:07.697Z,55.04
2022-09-07T04:41:07.634Z,55.02
2022-09-07T04:42:07.616Z,54.64
2022-09-07T04:43:07.605Z,54.51
2022-09-07T04:44:07.595Z,54.41
2022-09-07T04:45:07.582Z,54.11
2022-09-07T04:46:07.611Z,53.91
2022-09-07T04:47:07.581Z,54.13
2022-09-07T04:48:07.554Z,53.80
2022-09-07T04:49:07.538Z,53.63
2022-09-07T04:50:07.529Z,53.50
2022-09-07T04:51:07.518Z,53.63
2022-09-07T04:52:07.503Z,53.40
2022-09-07T04:53:07.541Z,53.52
2022-09-07T04:54:07.490Z,53.42
2022-09-07T04:55:07.480Z,53.32
2022-09-07T04:56:07.464Z,53.32
2022-09-07T04:57:07.455Z,53.02
2022-09-07T04:58:07.542Z,52.99
2022-09-07T04:59:07.441Z,52.89
2022-09-07T05:00:07.429Z,52.79
2022-09-07T05:01:07.475Z,53.19
2022-09-07T05:02:08.494Z,52.92
2022-09-07T05:03:07.396Z,52.69
2022-09-07T05:04:07.438Z,52.48
2022-09-07T05:05:07.528Z,52.48
2022-09-07T05:06:07.363Z,52.48
2022-09-07T05:07:07.347Z,52.48
2022-09-07T05:08:07.352Z,52.48
2022-09-07T05:09:07.328Z,51.98
2022-09-07T05:10:07.312Z,52.08
2022-09-07T05:11:07.306Z,52.39
2022-09-07T05:12:07.296Z,52.08
2022-09-07T05:13:07.282Z,52.69
2022-09-07T05:14:07.271Z,52.89
2022-09-07T05:15:07.261Z,52.89
2022-09-07T05:16:07.305Z,52.39
2022-09-07T05:17:07.240Z,52.79
2022-09-07T05:18:07.239Z,52.28
2022-09-07T05:19:07.220Z,51.98
2022-09-07T05:20:07.210Z,51.78
2022-09-07T05:21:07.197Z,51.57
2022-09-07T05:22:07.195Z,51.37
2022-09-07T05:23:07.180Z,51.27
2022-09-07T05:24:07.164Z,51.27
2022-09-07T05:25:07.155Z,50.66
2022-09-07T05:26:07.143Z,50.96
2022-09-07T05:27:07.135Z,50.76
2022-09-07T05:28:07.127Z,50.56
2022-09-07T05:30:07.469Z,50.26
2022-09-07T05:32:07.079Z,50.15
2022-09-07T05:33:07.072Z,50.15
2022-09-07T05:35:07.053Z,50.05
2022-09-07T05:36:07.038Z,50.05
2022-09-07T05:37:07.029Z,49.85
2022-09-07T05:38:07.016Z,49.62
2022-09-07T05:39:07.013Z,49.65
2022-09-07T05:40:07.111Z,49.44
2022-09-07T05:41:06.985Z,49.34
2022-09-07T05:42:06.975Z,49.34
2022-09-07T05:43:06.967Z,49.34
2022-09-07T05:45:06.942Z,49.34
2022-09-07T05:46:07.002Z,49.34
2022-09-07T05:47:06.921Z,49.14
2022-09-07T05:48:06.907Z,48.94
2022-09-07T05:49:06.905Z,49.44
2022-09-07T05:50:06.889Z,49.04
2022-09-07T05:51:06.878Z,49.24
2022-09-07T05:52:06.927Z,49.04
2022-09-07T05:53:06.856Z,48.83
2022-09-07T05:54:06.850Z,48.71
2022-09-07T05:55:26.186Z,48.83
2022-09-07T05:56:07.208Z,48.83
2022-09-07T05:57:06.816Z,48.74
2022-09-07T05:58:06.803Z,48.74
2022-09-07T05:59:06.793Z,48.61
2022-09-07T06:00:06.779Z,48.31
2022-09-07T06:01:06.769Z,48.31
2022-09-07T06:02:06.912Z,48.11
2022-09-07T06:03:06.867Z,48.11
2022-09-07T06:04:06.737Z,48.91
2022-09-07T06:05:06.723Z,48.41
2022-09-07T06:06:06.715Z,48.21
2022-09-07T06:07:23.142Z,48.11
2022-09-07T06:08:07.733Z,48.41
2022-09-07T06:09:06.793Z,48.61
2022-09-07T06:11:06.661Z,48.31
2022-09-07T06:12:06.646Z,48.71
2022-09-07T06:13:06.635Z,48.41
2022-09-07T06:14:06.622Z,48.61
2022-09-07T06:15:06.615Z,48.00
2022-09-07T06:16:06.663Z,47.80
2022-09-07T06:17:06.589Z,47.60
2022-09-07T06:18:06.580Z,47.70
2022-09-07T06:19:06.568Z,48.00
2022-09-07T06:20:06.661Z,47.70
2022-09-07T06:21:06.547Z,47.80
2022-09-07T06:22:06.532Z,47.70
2022-09-07T06:23:06.536Z,47.19
2022-09-07T06:24:06.517Z,47.38
2022-09-07T06:25:06.506Z,46.89
2022-09-07T06:26:06.487Z,46.89
2022-09-07T06:27:06.481Z,46.69
2022-09-07T06:28:06.469Z,46.48
2022-09-07T06:29:06.459Z,46.18
2022-09-07T06:30:06.457Z,46.16
2022-09-07T06:31:06.439Z,45.96
2022-09-07T06:33:06.430Z,46.28
2022-09-07T06:34:06.407Z,45.98
2022-09-07T06:35:06.395Z,45.86
2022-09-07T06:36:06.381Z,45.75
2022-09-07T06:37:06.374Z,46.18
2022-09-07T06:38:06.360Z,45.98
2022-09-07T06:39:06.350Z,45.57
2022-09-07T06:40:06.454Z,45.78
2022-09-07T06:42:06.314Z,45.67
2022-09-07T06:43:06.310Z,45.27
2022-09-07T06:44:06.296Z,45.04
2022-09-07T06:45:06.286Z,45.25
2022-09-07T06:47:06.266Z,45.15
2022-09-07T06:48:06.252Z,45.04
2022-09-07T06:49:06.243Z,45.25
2022-09-07T06:50:06.231Z,44.74
2022-09-07T06:51:06.220Z,44.54
2022-09-07T06:52:06.208Z,45.55
2022-09-07T06:55:06.193Z,45.03
2022-09-07T06:56:06.161Z,45.25
2022-09-07T06:57:06.157Z,45.04
2022-09-07T06:58:06.172Z,44.44
2022-09-07T06:59:06.247Z,44.24
2022-09-07T07:00:06.310Z,44.21
2022-09-07T07:01:06.216Z,44.21
2022-09-07T07:02:06.217Z,43.91
2022-09-07T07:03:06.127Z,43.81
2022-09-07T07:04:06.068Z,43.71
2022-09-07T07:05:06.320Z,43.51
2022-09-07T07:06:06.048Z,43.51
2022-09-07T07:07:06.038Z,43.61
2022-09-07T07:08:06.026Z,43.71
2022-09-07T07:09:06.044Z,43.18
2022-09-07T07:10:06.275Z,42.88
2022-09-07T07:11:05.991Z,42.88
2022-09-07T07:12:05.982Z,42.96
2022-09-07T07:13:06.044Z,42.15
2022-09-07T07:14:05.963Z,42.05
2022-09-07T07:15:05.952Z,41.85
2022-09-07T07:16:05.995Z,41.63
2022-09-07T07:17:05.927Z,41.83
2022-09-07T07:18:20.436Z,41.10
2022-09-07T07:19:05.907Z,41.20
2022-09-07T07:20:05.895Z,41.08
2022-09-07T07:21:05.884Z,42.09
2022-09-07T07:22:18.601Z,42.07
2022-09-07T07:23:06.891Z,42.96
2022-09-07T07:24:08.175Z,47.50
2022-09-07T07:25:05.840Z,51.31
2022-09-07T07:26:05.830Z,57.32
2022-09-07T07:27:05.918Z,58.84
2022-09-07T07:29:05.801Z,59.84
2022-09-07T07:30:05.787Z,65.16
2022-09-07T07:31:09.471Z,71.47
2022-09-07T07:32:05.762Z,68.55
2022-09-07T07:33:07.211Z,74.55
2022-09-07T07:34:05.796Z,73.11
2022-09-07T07:35:05.734Z,74.32
2022-09-07T07:36:05.723Z,73.41
2022-09-07T07:37:05.712Z,72.44
2022-09-07T07:39:05.892Z,68.65
2022-09-07T07:40:24.373Z,74.38
2022-09-07T07:42:06.322Z,86.90
2022-09-07T07:43:07.454Z,86.30
2022-09-07T07:44:05.634Z,80.41
2022-09-07T07:46:06.316Z,83.67
2022-09-07T07:47:05.657Z,84.97
2022-09-07T07:48:05.591Z,78.44
2022-09-07T07:49:05.578Z,77.83
2022-09-07T07:50:35.567Z,78.23
2022-09-07T07:51:11.895Z,78.23
2022-09-07T07:54:05.530Z,78.23
2022-09-07T07:55:42.904Z,79.44
2022-09-07T07:56:06.540Z,75.79
2022-09-07T07:57:05.495Z,75.99
2022-09-07T07:58:05.493Z,71.13
2022-09-07T07:59:05.473Z,86.94
2022-09-07T08:00:05.461Z,87.65
2022-09-07T08:01:05.487Z,84.45
2022-09-07T08:02:05.886Z,83.31
2022-09-07T08:03:05.428Z,87.22
2022-09-07T08:04:05.418Z,86.82
2022-09-07T08:05:05.415Z,91.24
2022-09-07T08:06:05.427Z,91.74
2022-09-07T08:07:10.227Z,86.22
2022-09-07T08:08:05.379Z,88.39
2022-09-07T08:09:05.364Z,89.33
2022-09-07T08:10:05.357Z,87.42
2022-09-07T08:11:05.342Z,88.02
2022-09-07T08:12:05.332Z,86.82
2022-09-07T08:13:05.318Z,86.38
2022-09-07T08:14:05.309Z,87.58
2022-09-07T08:15:05.301Z,89.50
2022-09-07T08:16:05.359Z,88.02
2022-09-07T08:17:05.275Z,95.78
2022-09-07T08:18:05.267Z,94.53
2022-09-07T08:19:05.254Z,92.42
2022-09-07T08:20:05.246Z,92.42
2022-09-07T08:21:05.233Z,93.43
2022-09-07T08:22:05.244Z,91.22
2022-09-07T08:23:05.211Z,92.98
2022-09-07T08:24:05.201Z,94.08
2022-09-07T08:25:05.188Z,94.58
2022-09-07T08:26:05.179Z,95.88
2022-09-07T08:27:05.180Z,94.98
2022-09-07T08:28:05.158Z,94.58
2022-09-07T08:29:05.146Z,94.18
2022-09-07T08:30:05.137Z,94.13
2022-09-07T08:31:05.153Z,95.94
2022-09-07T08:32:05.116Z,91.29
2022-09-07T08:33:05.103Z,93.29
2022-09-07T08:34:05.093Z,93.35
2022-09-07T08:35:05.081Z,91.90
2022-09-07T08:36:05.073Z,95.95
2022-09-07T08:37:05.061Z,97.20
2022-09-07T08:38:05.077Z,96.60
2022-09-07T08:39:05.134Z,96.94
2022-09-07T08:40:05.103Z,97.05
2022-09-07T08:41:05.021Z,96.90
2022-09-07T08:42:05.010Z,94.76
2022-09-07T08:43:04.997Z,97.06
2022-09-07T08:44:04.990Z,96.06
2022-09-07T08:45:04.978Z,97.36
2022-09-07T08:46:04.966Z,95.97
2022-09-07T08:47:05.023Z,94.43
2022-09-07T08:48:04.948Z,95.18
2022-09-07T08:49:04.935Z,91.95
2022-09-07T08:50:04.930Z,91.60
2022-09-07T08:51:04.911Z,93.99
2022-09-07T08:52:04.915Z,93.99
2022-09-07T08:53:04.965Z,93.79
2022-09-07T08:54:04.902Z,93.39
2022-09-07T08:55:04.883Z,94.48
2022-09-07T08:56:04.859Z,93.44
2022-09-07T08:57:20.849Z,91.60
2022-09-07T08:58:05.865Z,94.34
2022-09-07T08:59:04.825Z,91.46
2022-09-07T09:00:04.816Z,95.19
2022-09-07T09:04:21.780Z,89.48
2022-09-07T09:05:21.267Z,89.58
2022-09-07T09:06:05.915Z,90.11
2022-09-07T09:07:04.829Z,89.18
2022-09-07T09:08:04.827Z,90.83
2022-09-07T09:09:04.723Z,86.71
2022-09-07T09:10:04.747Z,88.81
2022-09-07T09:11:04.702Z,86.01
2022-09-07T09:12:04.691Z,85.82
2022-09-07T09:13:04.680Z,88.64
2022-09-07T09:14:04.671Z,85.06
2022-09-07T09:15:04.659Z,88.30
2022-09-07T09:16:04.691Z,85.46
2022-09-07T09:17:04.637Z,87.15
2022-09-07T09:18:04.629Z,87.15
2022-09-07T09:19:04.617Z,84.06
2022-09-07T09:20:04.606Z,84.17
2022-09-07T09:21:04.607Z,85.50
2022-09-07T09:22:04.592Z,87.49
2022-09-07T09:23:04.578Z,84.90
2022-09-07T09:24:04.565Z,84.41
2022-09-07T09:25:04.552Z,84.86
2022-09-07T09:26:04.577Z,85.82
2022-09-07T09:27:04.535Z,82.70
2022-09-07T09:28:04.524Z,82.60
2022-09-07T09:29:04.511Z,85.77
2022-09-07T09:30:04.502Z,80.91
2022-09-07T09:31:04.564Z,83.79
2022-09-07T09:32:04.480Z,84.44
2022-09-07T09:33:04.469Z,84.08
2022-09-07T09:34:04.489Z,81.40
2022-09-07T09:35:04.560Z,81.84
2022-09-07T09:36:04.440Z,83.87
2022-09-07T09:37:04.429Z,82.34
2022-09-07T09:38:04.421Z,82.65
2022-09-07T09:39:04.411Z,77.99
2022-09-07T09:40:04.478Z,76.17
2022-09-07T09:41:04.389Z,77.29
2022-09-07T09:42:04.438Z,78.39
2022-09-07T09:43:04.366Z,76.57
2022-09-07T09:44:04.358Z,75.93
2022-09-07T09:45:04.352Z,77.98
2022-09-07T09:46:19.802Z,76.29
2022-09-07T09:48:04.444Z,76.27
2022-09-07T09:49:04.309Z,76.50
2022-09-07T09:50:04.297Z,76.57
2022-09-07T09:53:04.343Z,77.66
2022-09-07T09:54:04.364Z,76.57
2022-09-07T09:55:30.640Z,74.58
2022-09-07T09:56:05.294Z,76.23
2022-09-07T09:57:04.393Z,72.76
2022-09-07T09:59:05.824Z,72.73
2022-09-07T10:00:10.336Z,73.58
2022-09-07T10:01:22.106Z,76.91
2022-09-07T10:04:09.506Z,71.41
2022-09-07T10:05:05.227Z,75.23
2022-09-07T10:06:04.158Z,70.28
2022-09-07T10:07:04.122Z,70.57
2022-09-07T10:08:04.110Z,69.13
2022-09-07T10:09:04.105Z,70.42
2022-09-07T10:10:04.089Z,69.92
2022-09-07T10:11:04.178Z,72.33
2022-09-07T10:12:05.696Z,67.91
2022-09-07T10:13:04.053Z,68.76
2022-09-07T10:14:04.066Z,66.30
2022-09-07T10:15:04.035Z,61.76
2022-09-07T10:16:04.057Z,65.18
2022-09-07T10:17:04.016Z,64.39
2022-09-07T10:18:04.005Z,63.04
2022-09-07T10:19:03.995Z,63.63
2022-09-07T10:20:03.987Z,63.83
2022-09-07T10:21:03.980Z,62.65
2022-09-07T10:22:03.961Z,62.48
2022-09-07T10:23:04.010Z,63.40
2022-09-07T10:24:04.066Z,63.00
2022-09-07T10:25:03.932Z,63.17
2022-09-07T10:26:03.922Z,61.59
2022-09-07T10:27:03.918Z,63.14
2022-09-07T10:28:03.950Z,63.56
2022-09-07T10:29:07.420Z,63.53
2022-09-07T10:30:06.725Z,62.54
2022-09-07T10:31:03.917Z,64.09
2022-09-07T10:32:03.861Z,62.77
2022-09-07T10:33:03.851Z,61.50
2022-09-07T10:35:05.278Z,58.69
2022-09-07T10:36:03.848Z,59.36
2022-09-07T10:37:03.862Z,62.84
2022-09-07T10:38:03.907Z,62.48
2022-09-07T10:39:03.790Z,63.23
2022-09-07T10:40:03.809Z,65.27
2022-09-07T10:41:03.769Z,67.28
2022-09-07T10:42:03.763Z,68.17
2022-09-07T10:44:03.739Z,69.56
2022-09-07T10:45:03.727Z,71.86
2022-09-07T10:46:03.812Z,66.13
2022-09-07T10:47:03.788Z,64.81
2022-09-07T10:48:03.694Z,65.20
2022-09-07T10:49:03.683Z,64.58
2022-09-07T10:51:13.432Z,62.14
2022-09-07T10:52:04.682Z,61.91
2022-09-07T10:53:17.998Z,60.60
2022-09-07T10:55:03.623Z,60.31
2022-09-07T10:56:03.615Z,59.78
2022-09-07T10:57:03.614Z,57.11
2022-09-07T10:58:03.595Z,55.23
2022-09-07T10:59:04.275Z,53.31
2022-09-07T11:00:11.116Z,51.62
2022-09-07T11:01:04.632Z,50.83
2022-09-07T11:02:03.579Z,51.84
2022-09-07T11:04:04.698Z,53.98
2022-09-07T11:05:03.675Z,52.82
2022-09-07T11:06:03.519Z,51.66
2022-09-07T11:07:03.507Z,49.97
2022-09-07T11:08:03.499Z,49.92
2022-09-07T11:09:19.836Z,51.96
2022-09-07T11:10:04.504Z,52.89
2022-09-07T11:11:03.466Z,53.64
2022-09-07T11:12:04.292Z,55.36
2022-09-07T11:13:03.440Z,55.46
2022-09-07T11:14:12.997Z,54.20
2022-09-07T11:15:04.450Z,54.03
2022-09-07T11:16:03.521Z,54.64
2022-09-07T11:17:03.659Z,56.18
2022-09-07T11:18:03.417Z,56.43
2022-09-07T11:20:03.460Z,57.87
2022-09-07T11:21:03.366Z,58.69
2022-09-07T11:22:03.358Z,60.22
2022-09-07T11:23:03.343Z,60.88
2022-09-07T11:24:03.332Z,62.16
2022-09-07T11:26:03.313Z,62.33
2022-09-07T11:27:03.301Z,62.04
2022-09-07T11:28:03.289Z,63.02
2022-09-07T11:30:03.378Z,62.70
2022-09-07T11:31:03.283Z,60.66
2022-09-07T11:32:03.246Z,56.10
2022-09-07T11:33:03.239Z,56.01
2022-09-07T11:35:04.247Z,56.36
2022-09-07T11:36:03.209Z,57.37
2022-09-07T11:37:03.197Z,57.45
2022-09-07T11:38:03.225Z,57.64
2022-09-07T11:39:03.179Z,57.67
2022-09-07T11:40:03.206Z,59.67
2022-09-07T11:41:03.155Z,59.58
2022-09-07T11:42:42.854Z,59.22
2022-09-07T11:43:04.176Z,56.64
2022-09-07T11:44:03.123Z,54.62
2022-09-07T11:45:03.127Z,53.54
2022-09-07T11:46:03.147Z,54.22
2022-09-07T11:47:03.098Z,53.78
2022-09-07T11:48:03.082Z,53.91
2022-09-07T11:49:04.587Z,54.93
2022-09-07T11:50:03.083Z,55.83
2022-09-07T11:51:03.058Z,57.15
2022-09-07T11:52:06.101Z,56.78
2022-09-07T11:53:03.130Z,57.07
2022-09-07T11:54:03.022Z,58.49
2022-09-07T11:55:03.014Z,58.69
2022-09-07T11:56:03.004Z,57.89
2022-09-07T11:57:02.996Z,58.42
2022-09-07T11:58:02.982Z,59.01
2022-09-07T11:59:02.972Z,58.74
2022-09-07T12:00:02.961Z,58.84
2022-09-07T12:01:02.953Z,60.16
2022-09-07T12:02:02.937Z,59.73
2022-09-07T12:03:02.987Z,60.13
2022-09-07T12:04:03.076Z,60.79
2022-09-07T12:05:03.132Z,60.39
2022-09-07T12:06:02.973Z,59.18
2022-09-07T12:07:02.885Z,58.00
2022-09-07T12:08:02.878Z,58.09
2022-09-07T12:09:02.869Z,58.49
2022-09-07T12:10:02.861Z,57.67
2022-09-07T12:11:02.850Z,56.78
2022-09-07T12:12:02.838Z,56.98
2022-09-07T12:13:02.827Z,56.81
2022-09-07T12:14:02.815Z,56.71
2022-09-07T12:15:02.810Z,57.30
2022-09-07T12:16:02.923Z,57.79
2022-09-07T12:17:02.858Z,57.77
2022-09-07T12:18:02.776Z,57.18
2022-09-07T12:19:02.764Z,58.33
2022-09-07T12:20:02.753Z,59.22
2022-09-07T12:21:02.754Z,58.33
2022-09-07T12:22:02.880Z,56.26
2022-09-07T12:23:05.209Z,55.96
2022-09-07T12:24:02.710Z,54.97
2022-09-07T12:25:02.703Z,55.44
2022-09-07T12:26:02.692Z,56.53
2022-09-07T12:27:02.683Z,55.51
2022-09-07T12:28:02.669Z,54.30
2022-09-07T12:29:02.661Z,54.45
2022-09-07T12:30:02.738Z,54.13
2022-09-07T12:31:02.769Z,51.93
2022-09-07T12:33:02.722Z,50.21
2022-09-07T12:34:02.609Z,49.33
2022-09-07T12:35:02.766Z,49.95
2022-09-07T12:36:02.588Z,50.26
2022-09-07T12:37:02.579Z,50.83
2022-09-07T12:38:02.587Z,50.83
2022-09-07T12:39:02.562Z,50.07
2022-09-07T12:40:02.608Z,48.77
2022-09-07T12:41:02.549Z,48.69
2022-09-07T12:43:09.690Z,49.60
2022-09-07T12:44:03.532Z,49.31
2022-09-07T12:45:02.499Z,49.07
2022-09-07T12:46:02.550Z,48.57
2022-09-07T12:47:02.479Z,48.43
2022-09-07T12:48:02.700Z,48.52
2022-09-07T12:49:02.456Z,48.52
2022-09-07T12:50:02.574Z,47.55
2022-09-07T12:51:02.434Z,48.18
2022-09-07T12:52:11.583Z,48.23
2022-09-07T12:53:03.442Z,50.02
2022-09-07T12:54:02.526Z,50.39
2022-09-07T12:55:26.214Z,51.59
2022-09-07T12:56:18.166Z,52.70
2022-09-07T12:58:02.363Z,53.61
2022-09-07T12:59:02.358Z,54.23
2022-09-07T13:00:02.457Z,55.05
2022-09-07T13:01:05.219Z,56.06
2022-09-07T13:02:02.450Z,57.05
2022-09-07T13:03:03.907Z,56.68
2022-09-07T13:04:02.300Z,57.50
2022-09-07T13:05:02.290Z,58.02
2022-09-07T13:06:02.369Z,58.32
2022-09-07T13:07:02.753Z,58.72
2022-09-07T13:08:08.626Z,58.32
2022-09-07T13:09:03.278Z,58.29
2022-09-07T13:10:02.270Z,57.28
2022-09-07T13:11:02.230Z,56.26
2022-09-07T13:12:02.217Z,56.06
2022-09-07T13:13:02.208Z,56.26
2022-09-07T13:14:10.761Z,56.26
2022-09-07T13:15:02.186Z,56.23
2022-09-07T13:16:03.763Z,56.43
2022-09-07T13:17:17.830Z,56.73
2022-09-07T13:18:03.185Z,56.82
2022-09-07T13:19:02.639Z,55.32
2022-09-07T13:20:02.310Z,56.01
2022-09-07T13:21:02.128Z,55.51
2022-09-07T13:22:02.146Z,55.41
2022-09-07T13:23:02.104Z,55.15
2022-09-07T13:24:45.646Z,55.05
2022-09-07T13:25:03.213Z,55.83
2022-09-07T13:26:02.101Z,55.83
2022-09-07T13:27:02.063Z,56.36
2022-09-07T13:28:02.058Z,55.47
2022-09-07T13:29:02.041Z,55.96